Flight Track Log - Related Links

Times and Time Zones

All times are in EDT time to prevent confusion due to time zone crossing. See the UAL407 flight status page for this flight to view local times or setup timezone preferences in your user account.

Time Position Orientation Groundspeed Altitude Reporting Facility
EDT Latitude Longitude Course Direction KTS MPH feet Rate Location/Type
Thu 06:10:04 PM 42.7503 -73.8283 261° West 148 170 1,400  Level Boston Center
Thu 06:10:41 PM 42.7458 -73.8678 261° West 184 212 2,500 2,468 Climbing Boston Center
Thu 06:12:08 PM 42.8008 -73.9569 310° West 257 296 6,500 3,224 Climbing Boston Center
Thu 06:13:08 PM 42.8606 -74.0150 325° Northwest 250 288 10,400 2,900 Climbing Boston Center
Thu 06:14:08 PM 42.9181 -74.0789 321° Northwest 274 315 12,300 2,550 Climbing Boston Center
Thu 06:15:08 PM 42.9897 -74.1631 319° Northwest 296 341 15,500 2,727 Climbing Boston Center
Thu 06:16:20 PM 43.0422 -74.2667 305° West 305 351 18,300 2,545 Climbing Boston Center
Thu 06:17:20 PM 43.0528 -74.3892 277° West 300 345 21,100 2,300 Climbing Boston Center
Thu 06:18:20 PM 43.0608 -74.5144 275° West 314 361 22,900 1,900 Climbing Boston Center
Thu 06:19:20 PM 43.0689 -74.6400 275° West 333 383 24,900 1,800 Climbing Boston Center
Thu 06:20:20 PM 43.0789 -74.7683 276° West 333 383 26,500 1,600 Climbing Boston Center
Thu 06:21:20 PM 43.0867 -74.9022 275° West 345 397 28,100 1,500 Climbing Boston Center
Thu 06:22:32 PM 43.0956 -75.0589 274° West 350 403 29,800 864 Climbing Boston Center
Thu 06:23:32 PM 43.1044 -75.2100 275° West 361 415 30,000 100 Climbing Boston Center
Thu 06:24:32 PM 43.1136 -75.3528 275° West 367 422 30,000  Level Boston Center
Thu 06:25:32 PM 43.1225 -75.4897 275° West 372 428 30,000  Level Boston Center
Thu 06:26:32 PM 43.1289 -75.6294 274° West 372 428 30,000 750 Level Boston Center
Thu 06:27:32 PM 43.1378 -75.7636 275° West 367 422 31,500 1,400 Climbing Boston Center
Thu 06:28:32 PM 43.1439 -75.9036 273° West 367 422 32,800 750 Climbing Boston Center
Thu 06:29:32 PM 43.1522 -76.0378 275° West 367 422 33,000 664 Climbing Boston Center
Thu 06:33:21 PM 43.1589 -76.5500 271° West 338 389 36,000 623 Climbing Cleveland Center
Thu 06:34:21 PM 43.1594 -76.6867 270° West 351 404 36,000  Level Cleveland Center
Thu 06:35:21 PM 43.1594 -76.8092 270° West 351 404 36,000  Level Cleveland Center
Thu 06:36:21 PM 43.1597 -76.9456 270° West 351 404 36,000  Level Cleveland Center
Thu 06:37:21 PM 43.1575 -77.0797 269° West 346 398 36,000  Level Cleveland Center
Thu 06:38:21 PM 43.1575 -77.2161 270° West 356 410 36,000  Level Cleveland Center
Thu 06:39:21 PM 43.1550 -77.3531 269° West 361 415 36,000  Level Cleveland Center
Thu 06:40:21 PM 43.1547 -77.4953 270° West 371 427 36,000  Level Cleveland Center
Thu 06:41:21 PM 43.1542 -77.6319 270° West 371 427 36,000  Level Cleveland Center
Thu 06:42:21 PM 43.1514 -77.7689 268° West 366 421 36,000  Level Cleveland Center
Thu 06:43:21 PM 43.1503 -77.9083 269° West 366 421 36,000  Level Cleveland Center
Thu 06:44:21 PM 43.1472 -78.0450 268° West 366 421 36,000  Level Cleveland Center
Thu 06:45:21 PM 43.1461 -78.1844 269° West 366 421 36,000  Level Cleveland Center
Thu 06:46:21 PM 43.1425 -78.3211 268° West 366 421 36,000  Level Cleveland Center
Thu 06:47:21 PM 43.1411 -78.4636 269° West 366 421 36,000  Level Cleveland Center
Thu 06:48:21 PM 43.1372 -78.6003 268° West 366 421 36,000  Level Cleveland Center
Thu 06:49:21 PM 43.1333 -78.7397 268° West 366 421 36,000  Level Cleveland Center
Thu 06:50:21 PM 43.1292 -78.8792 268° West 366 421 36,000  Level Cleveland Center
Thu 06:50:44 PM 43.1167 -78.9333 252° West 370 426 36,000  Level Toronto Center
Thu 06:51:44 PM 43.1167 -79.0667 270° West 370 426 36,000  Level Toronto Center
Thu 06:52:44 PM 43.1000 -79.2167 261° West 370 426 36,000  Level Toronto Center
Thu 06:53:44 PM 43.1000 -79.3333 270° West 370 426 36,000  Level Toronto Center
Thu 06:54:44 PM 43.1000 -79.5000 270° West 370 426 36,000  Level Toronto Center
Thu 06:55:44 PM 43.0833 -79.6167 259° West 360 414 36,000  Level Toronto Center
Thu 06:56:44 PM 43.0833 -79.7667 270° West 360 414 36,000  Level Toronto Center
Thu 06:57:44 PM 43.0833 -79.9000 270° West 360 414 36,000  Level Toronto Center
Thu 06:58:44 PM 43.0833 -80.0167 270° West 360 414 36,000  Level Toronto Center
Thu 06:59:44 PM 43.0667 -80.1833 262° West 370 426 36,000  Level Toronto Center
Thu 07:00:44 PM 43.0667 -80.3167 270° West 370 426 36,000  Level Toronto Center
Thu 07:01:44 PM 43.0667 -80.4500 270° West 370 426 36,000  Level Toronto Center
Thu 07:02:44 PM 43.0500 -80.6167 262° West 380 437 36,000 -250 Level Toronto Center
Thu 07:03:44 PM 43.0500 -80.7500 270° West 380 437 35,500 -1,000 Descending Toronto Center
Thu 07:04:44 PM 43.0333 -80.8833 260° West 380 437 34,000 -750 Descending Toronto Center
Thu 07:05:44 PM 43.0167 -81.0500 262° West 390 449 34,000  Level Toronto Center
Thu 07:06:44 PM 43.0167 -81.1833 270° West 390 449 34,000  Level Toronto Center
Thu 07:07:44 PM 43.0167 -81.3500 270° West 390 449 34,000  Level Toronto Center
Thu 07:08:44 PM 43.0167 -81.4833 270° West 390 449 34,000  Level Toronto Center
Thu 07:09:44 PM 43.0167 -81.6333 270° West 400 460 34,000  Level Toronto Center
Thu 07:10:44 PM 43.0167 -81.7833 270° West 390 449 34,000  Level Toronto Center
Thu 07:11:44 PM 43.0000 -81.9333 261° West 390 449 34,000  Level Toronto Center
Thu 07:12:44 PM 43.0000 -82.0667 270° West 390 449 34,000  Level Toronto Center
Thu 07:13:44 PM 43.0000 -82.2333 270° West 400 460 34,000  Level Toronto Center
Thu 07:14:44 PM 43.0000 -82.3833 270° West 400 460 34,000  Level Toronto Center
Thu 07:15:44 PM 43.0000 -82.5333 270° West 400 460 34,000  Level Toronto Center
Thu 07:16:45 PM 43.0017 -82.6867 271° West 401 461 34,000  Level Cleveland Center
Thu 07:17:45 PM 42.9967 -82.8369 267° West 401 461 34,000  Level Cleveland Center
Thu 07:18:45 PM 42.9936 -82.9875 268° West 401 461 34,000 -400 Level Cleveland Center
Thu 07:19:45 PM 42.9883 -83.1378 267° West 401 461 33,200 -900 Descending Cleveland Center
Thu 07:20:45 PM 42.9808 -83.2906 266° West 401 461 32,200 -600 Descending Cleveland Center
Thu 07:21:45 PM 42.9769 -83.4436 268° West 401 461 32,000 -67 Descending Cleveland Center
Thu 07:23:45 PM 42.9647 -83.7525 267° West 406 467 32,000  Level Cleveland Center
Thu 07:24:45 PM 42.9522 -83.9022 264° West 406 467 32,000  Level Cleveland Center
Thu 07:25:45 PM 42.9353 -84.0544 261° West 406 467 32,000  Level Cleveland Center
Thu 07:27:44 PM 42.8833 -84.3667 257° West 410 472 32,000  Level Toronto Center
Thu 07:27:59 PM 42.9033 -84.3972 312° West 411 473 32,000  Level Chicago Center
Thu 07:29:01 PM 42.8875 -84.5514 262° West 410 472 32,000  Level Chicago Center
Thu 07:30:03 PM 42.8722 -84.7056 262° West 412 474 32,000  Level Chicago Center
Thu 07:31:05 PM 42.8522 -84.8908 262° West 412 474 32,000  Level Chicago Center
Thu 07:32:07 PM 42.8358 -85.0453 262° West 413 475 32,000 -145 Level Chicago Center
Thu 07:33:09 PM 42.8192 -85.2011 262° West 415 478 31,700 -629 Descending Chicago Center
Thu 07:34:11 PM 42.8019 -85.3589 262° West 419 482 30,700 -960 Descending Chicago Center
Thu 07:35:14 PM 42.7828 -85.5181 261° West 423 487 29,700 -960 Descending Chicago Center
Thu 07:36:16 PM 42.7536 -85.6792 256° West 432 497 28,700 -1,161 Descending Chicago Center
Thu 07:37:18 PM 42.7236 -85.8447 256° West 445 512 27,300 -2,274 Descending Chicago Center
Thu 07:38:20 PM 42.6875 -86.0406 256° West 443 510 24,000 -2,952 Descending Chicago Center
Thu 07:39:22 PM 42.6583 -86.2003 256° West 434 499 21,200 -2,323 Descending Chicago Center
Thu 07:40:24 PM 42.6286 -86.3572 256° West 427 491 19,200 -1,500 Descending Chicago Center
Thu 07:41:26 PM 42.5994 -86.5100 256° West 420 483 18,100 -1,016 Descending Chicago Center
Thu 07:42:28 PM 42.5714 -86.6589 256° West 410 472 17,100 -968 Descending Chicago Center
Thu 07:43:30 PM 42.5403 -86.8042 254° West 404 465 16,100 -968 Descending Chicago Center
Thu 07:44:32 PM 42.5017 -86.9439 249° West 399 459 15,100 -1,742 Descending Chicago Center
Thu 07:45:34 PM 42.4553 -87.1050 249° West 383 441 12,500 -2,256 Descending Chicago Center
Thu 07:46:37 PM 42.4197 -87.2383 250° West 378 435 10,400 -1,200 Descending Chicago Center
Thu 07:47:39 PM 42.3856 -87.3633 250° West 361 415 10,000 -194 Descending Chicago Center
Thu 07:48:41 PM 42.3514 -87.4844 249° West 338 389 10,000  Level Chicago Center
Thu 07:49:43 PM 42.2931 -87.5794 230° Southwest 348 400 10,000  Level Chicago Center
Thu 07:50:45 PM 42.2175 -87.6619 219° Southwest 349 402 10,000 -194 Level Chicago Center
Thu 07:51:47 PM 42.1403 -87.7442 218° Southwest 297 342 9,600 -791 Descending Chicago Center
Thu 07:52:16 PM 42.1167 -87.7833 231° Southwest 290 334 8,800 -1,590 Descending Chicago TRACON
Thu 07:53:10 PM 42.0833 -87.8833 246° West 285 328 7,400 -947 Descending Chicago TRACON
Thu 07:54:10 PM 42.0667 -87.9667 255° West 281 323 7,000 -400 Descending Chicago TRACON
Thu 07:55:10 PM 42.0500 -88.0667 257° West 242 278 6,600 -629 Descending Chicago TRACON
Thu 07:55:55 PM 42.0533 -88.1300 274° West 241 277 5,900 -673 Descending Chicago Center
Thu 07:56:57 PM 42.0539 -88.2156 271° West 234 269 5,400 -384 Descending Chicago Center
Thu 07:58:00 PM 42.0556 -88.2975 272° West 228 262 5,100 -192 Descending Chicago Center
Thu 07:59:02 PM 42.0486 -88.3656 262° West 209 241 5,000 -48 Descending Chicago Center
Thu 08:00:04 PM 41.9989 -88.3639 179° South 197 227 5,000  Level Chicago Center
Thu 08:01:06 PM 41.9678 -88.2897 119° Southeast 194 223 5,000  Level Chicago Center
Thu 08:02:08 PM 41.9675 -88.2186 90° East 196 226 5,000 -432 Level Chicago Center
Thu 08:03:11 PM 41.9681 -88.1533 89° East 183 211 4,100 -1,026 Descending Chicago Center
Thu 08:04:05 PM 41.9667 -88.0833 92° East 182 209 3,000 -1,158 Descending Chicago TRACON
Thu 08:05:05 PM 41.9667 -88.0167 90° East 168 193 1,900 -900 Descending Chicago TRACON
Thu 08:06:05 PM 41.9667 -87.9667 90° East 125 144 1,200 -700 Descending Chicago TRACON
Thu 08:08:00 PM 41.9667 -87.9000 95° East  Level FlightAware Approximate
Thu 08:15:00 PM 41.9817 -87.9067 95° East  Level Estimated

Login

Don't have an account? Register now (free) for customized features, flight alerts, and more!